createdAt,value
2018-04-02T00:01:14.307Z,31.53
2018-04-02T00:03:40.295Z,31.60
2018-04-02T00:06:06.985Z,32.13
2018-04-02T00:08:32.970Z,30.67
2018-04-02T00:10:58.928Z,28.13
2018-04-02T00:13:24.891Z,29.37
2018-04-02T00:15:51.655Z,29.70
2018-04-02T00:18:17.589Z,28.97
2018-04-02T00:20:43.554Z,27.83
2018-04-02T00:23:10.273Z,30.20
2018-04-02T00:25:36.249Z,29.83
2018-04-02T00:28:02.224Z,30.57
2018-04-02T00:30:28.163Z,30.03
2018-04-02T00:32:54.859Z,27.97
2018-04-02T00:35:20.814Z,27.57
2018-04-02T00:37:47.523Z,28.60
2018-04-02T00:40:13.507Z,28.30
2018-04-02T00:42:39.503Z,28.33
2018-04-02T00:45:05.508Z,26.30
2018-04-02T00:47:32.185Z,29.17
2018-04-02T00:49:58.136Z,28.00
2018-04-02T00:52:24.092Z,28.27
2018-04-02T00:54:50.043Z,27.13
2018-04-02T00:57:16.003Z,28.87
2018-04-02T00:59:42.745Z,28.83
2018-04-02T01:02:10.225Z,28.97
2018-04-02T01:04:36.175Z,29.47
2018-04-02T01:07:02.114Z,31.47
2018-04-02T01:09:28.065Z,34.23
2018-04-02T01:11:54.750Z,30.87
2018-04-02T01:14:20.747Z,32.70
2018-04-02T01:16:46.701Z,31.20
2018-04-02T01:19:12.670Z,29.37
2018-04-02T01:21:38.680Z,31.77
2018-04-02T01:24:04.634Z,28.97
2018-04-02T01:26:30.594Z,28.93
2018-04-02T01:28:57.307Z,30.50
2018-04-02T01:31:23.247Z,28.70
2018-04-02T01:33:49.954Z,25.93
2018-04-02T01:36:16.476Z,30.83
2018-04-02T01:38:42.426Z,26.73
2018-04-02T01:41:08.391Z,29.60
2018-04-02T01:43:35.243Z,26.73
2018-04-02T01:46:01.212Z,25.27
2018-04-02T01:48:27.891Z,25.87
2018-04-02T01:50:53.844Z,27.27
2018-04-02T01:53:19.796Z,27.33
2018-04-02T01:55:46.532Z,25.33
2018-04-02T01:58:13.235Z,27.50
2018-04-02T02:00:39.197Z,28.17
2018-04-02T02:03:05.162Z,28.07
2018-04-02T02:05:31.152Z,27.23
2018-04-02T02:07:57.891Z,28.80
2018-04-02T02:10:23.847Z,27.93
2018-04-02T02:12:49.794Z,32.60
2018-04-02T02:15:16.499Z,28.50
2018-04-02T02:17:42.444Z,31.73
2018-04-02T02:20:09.374Z,31.60
2018-04-02T02:22:36.095Z,32.63
2018-04-02T02:25:02.062Z,32.37
2018-04-02T02:27:28.035Z,34.50
2018-04-02T02:29:53.990Z,33.93
2018-04-02T02:32:19.937Z,36.87
2018-04-02T02:34:46.558Z,37.07
2018-04-02T02:37:12.516Z,36.10
2018-04-02T02:39:38.465Z,35.57
2018-04-02T02:42:05.193Z,35.83
2018-04-02T02:44:31.963Z,37.73
2018-04-02T02:46:57.928Z,38.33
2018-04-02T02:49:23.893Z,40.73
2018-04-02T02:51:49.921Z,39.97
2018-04-02T02:54:15.881Z,42.17
2018-04-02T02:56:41.840Z,38.87
2018-04-02T02:59:07.793Z,48.30
2018-04-02T03:01:33.738Z,44.77
2018-04-02T03:03:59.713Z,46.97
2018-04-02T03:06:25.673Z,43.13
2018-04-02T03:08:51.643Z,42.70
2018-04-02T03:11:17.620Z,45.13
2018-04-02T03:13:44.587Z,44.50
2018-04-02T03:16:11.276Z,46.17
2018-04-02T03:18:38.330Z,48.10
2018-04-02T03:21:04.240Z,44.83
2018-04-02T03:23:30.212Z,43.63
2018-04-02T03:25:56.178Z,47.10
2018-04-02T03:28:22.148Z,45.73
2018-04-02T03:30:48.133Z,50.13
2018-04-02T03:33:14.107Z,50.37
2018-04-02T03:35:40.075Z,46.07
2018-04-02T03:38:06.010Z,47.47
2018-04-02T03:40:32.739Z,50.97
2018-04-02T03:42:59.489Z,46.63
2018-04-02T03:45:25.440Z,46.00
2018-04-02T03:47:51.404Z,53.73
2018-04-02T03:50:18.119Z,47.70
2018-04-02T03:52:44.089Z,46.80
2018-04-02T03:55:10.086Z,45.93
2018-04-02T03:57:36.808Z,46.40
2018-04-02T04:00:02.751Z,48.00
2018-04-02T04:02:29.461Z,49.57
2018-04-02T04:04:55.413Z,44.63
2018-04-02T04:07:21.364Z,45.10
2018-04-02T04:09:47.307Z,45.90
2018-04-02T04:12:13.253Z,48.73
2018-04-02T04:14:39.963Z,45.07
2018-04-02T04:17:05.981Z,49.13
2018-04-02T04:19:31.931Z,49.00
2018-04-02T04:21:58.681Z,49.77
2018-04-02T04:24:25.694Z,45.30
2018-04-02T04:26:52.482Z,48.70
2018-04-02T04:29:18.433Z,48.20
2018-04-02T04:31:44.399Z,48.40
2018-04-02T04:34:10.325Z,45.33
2018-04-02T04:36:36.262Z,49.23
2018-04-02T04:39:02.242Z,52.37
2018-04-02T04:41:28.265Z,50.40
2018-04-02T04:43:54.208Z,49.17
2018-04-02T04:46:20.145Z,49.07
2018-04-02T04:48:46.140Z,49.67
2018-04-02T04:51:12.120Z,56.80
2018-04-02T04:53:38.796Z,49.53
2018-04-02T04:56:04.770Z,51.77
2018-04-02T04:58:31.474Z,58.10
2018-04-02T05:00:57.429Z,52.70
2018-04-02T05:03:24.149Z,47.47
2018-04-02T05:05:50.092Z,52.13
2018-04-02T05:08:16.803Z,59.37
2018-04-02T05:10:42.767Z,55.10
2018-04-02T05:13:08.727Z,50.50
2018-04-02T05:15:34.693Z,55.20
2018-04-02T05:18:00.671Z,64.17
2018-04-02T05:20:26.684Z,64.77
2018-04-02T05:22:53.611Z,55.40
2018-04-02T05:25:19.532Z,52.53
2018-04-02T05:27:50.233Z,58.17
2018-04-02T05:30:16.208Z,61.67
2018-04-02T05:32:42.894Z,56.27
2018-04-02T05:35:08.865Z,56.07
2018-04-02T05:37:35.562Z,57.97
2018-04-02T05:40:01.531Z,56.47
2018-04-02T05:42:28.261Z,54.00
2018-04-02T05:44:54.944Z,54.93
2018-04-02T05:47:20.877Z,56.07
2018-04-02T05:49:46.813Z,57.53
2018-04-02T05:52:12.784Z,60.20
2018-04-02T05:54:38.756Z,54.47
2018-04-02T05:57:04.700Z,59.07
2018-04-02T05:59:31.413Z,56.33
2018-04-02T06:01:57.365Z,55.43
2018-04-02T06:04:23.297Z,52.83
2018-04-02T06:06:49.267Z,54.50
2018-04-02T06:09:15.217Z,57.17
2018-04-02T06:11:41.195Z,52.23
2018-04-02T06:14:07.163Z,60.03
2018-04-02T06:16:33.087Z,52.03
2018-04-02T06:18:59.051Z,56.50
2018-04-02T06:21:24.984Z,53.80
2018-04-02T06:23:52.556Z,51.03
2018-04-02T06:26:19.265Z,55.83
2018-04-02T06:28:45.209Z,50.23
2018-04-02T06:31:11.892Z,52.80
2018-04-02T06:33:37.841Z,55.23
2018-04-02T06:36:03.782Z,54.90
2018-04-02T06:38:38.000Z,55.30
2018-04-02T06:41:03.972Z,54.87
2018-04-02T06:43:31.599Z,53.17
2018-04-02T06:45:59.765Z,56.83
2018-04-02T06:48:46.352Z,54.13
2018-04-02T06:51:12.329Z,58.67
2018-04-02T06:53:39.963Z,54.37
2018-04-02T06:56:06.488Z,55.90
2018-04-02T06:58:33.445Z,56.67
2018-04-02T07:01:01.131Z,53.10
2018-04-02T07:03:27.857Z,55.27
2018-04-02T07:05:53.816Z,54.07
2018-04-02T07:11:40.500Z,56.27
2018-04-02T07:14:07.272Z,56.17
2018-04-02T07:16:33.240Z,58.63
2018-04-02T07:18:59.272Z,60.53
2018-04-02T07:21:25.268Z,63.10
2018-04-02T07:26:33.701Z,59.13
2018-04-02T07:29:10.288Z,60.53
2018-04-02T07:31:38.649Z,62.43
2018-04-02T07:34:11.241Z,61.67
2018-04-02T07:36:41.998Z,61.37
2018-04-02T07:39:09.912Z,55.23
2018-04-02T07:41:50.949Z,58.77
2018-04-02T07:44:20.420Z,60.40
2018-04-02T07:46:46.391Z,65.90
2018-04-02T07:49:13.571Z,56.80
2018-04-02T07:51:40.982Z,57.67
2018-04-02T07:54:07.037Z,65.13
2018-04-02T07:56:33.964Z,59.80
2018-04-02T07:58:59.955Z,56.57
2018-04-02T08:01:30.390Z,65.20
2018-04-02T08:03:56.446Z,61.70
2018-04-02T08:06:23.194Z,64.43
2018-04-02T08:11:23.144Z,65.23
2018-04-02T08:14:06.625Z,68.50
2018-04-02T08:16:32.628Z,64.97
2018-04-02T08:18:58.592Z,68.90
2018-04-02T08:21:25.654Z,71.57
2018-04-02T08:23:53.990Z,69.27
2018-04-02T08:26:25.657Z,70.07
2018-04-02T08:28:51.704Z,71.83
2018-04-02T08:31:17.718Z,70.30
2018-04-02T08:36:33.066Z,77.33
2018-04-02T08:38:59.480Z,69.50
2018-04-02T08:41:25.646Z,72.47
2018-04-02T08:43:52.588Z,70.87
2018-04-02T08:46:18.543Z,69.13
2018-04-02T08:48:45.904Z,81.30
2018-04-02T08:51:12.122Z,70.93
2018-04-02T08:53:38.120Z,71.37
2018-04-02T08:56:04.112Z,69.47
2018-04-02T08:58:32.823Z,70.10
2018-04-02T09:00:58.805Z,68.27
2018-04-02T09:03:25.515Z,68.37
2018-04-02T09:05:51.506Z,59.47
2018-04-02T09:08:18.522Z,65.43
2018-04-02T09:10:44.540Z,65.67
2018-04-02T09:13:11.495Z,60.37
2018-04-02T09:15:37.564Z,69.30
2018-04-02T09:18:04.571Z,61.67
2018-04-02T09:20:30.656Z,65.63
2018-04-02T09:22:57.369Z,61.10
2018-04-02T09:25:23.379Z,59.23
2018-04-02T09:27:52.743Z,63.20
2018-04-02T09:30:19.345Z,59.87
2018-04-02T09:32:45.335Z,57.50
2018-04-02T09:35:11.299Z,58.13
2018-04-02T09:37:37.274Z,58.93
2018-04-02T09:40:03.865Z,60.73
2018-04-02T09:45:46.127Z,60.37
2018-04-02T09:48:12.826Z,62.83
2018-04-02T09:50:38.776Z,66.73
2018-04-02T09:53:04.725Z,57.77
2018-04-02T09:55:30.725Z,63.60
2018-04-02T09:57:57.459Z,59.63
2018-04-02T10:00:30.483Z,61.33
2018-04-02T10:02:56.461Z,61.97
2018-04-02T10:05:23.500Z,58.97
2018-04-02T10:07:50.769Z,56.37
2018-04-02T10:10:16.809Z,60.93
2018-04-02T10:12:43.486Z,60.33
2018-04-02T10:15:09.447Z,54.67
2018-04-02T10:17:37.042Z,59.83
2018-04-02T10:20:09.670Z,55.27
2018-04-02T10:22:36.373Z,51.27
2018-04-02T10:25:05.944Z,53.73
2018-04-02T10:27:36.179Z,52.37
2018-04-02T10:30:03.455Z,51.73
2018-04-02T10:32:31.828Z,52.00
2018-04-02T10:35:01.126Z,50.63
2018-04-02T10:37:29.314Z,50.67
2018-04-02T10:39:56.088Z,49.83
2018-04-02T10:42:25.031Z,47.60
2018-04-02T10:44:51.584Z,45.40
2018-04-02T10:47:18.280Z,43.50
2018-04-02T10:49:44.285Z,41.83
2018-04-02T10:52:37.860Z,43.93
2018-04-02T10:55:07.414Z,42.43
2018-04-02T10:57:33.381Z,40.27
2018-04-02T10:59:59.456Z,40.93
2018-04-02T11:02:25.451Z,36.73
2018-04-02T11:04:52.166Z,39.60
2018-04-02T11:07:18.792Z,39.50
2018-04-02T11:09:44.860Z,36.33
2018-04-02T11:12:10.855Z,42.53
2018-04-02T11:14:37.598Z,42.87
2018-04-02T11:17:04.328Z,39.77
2018-04-02T11:19:31.112Z,40.00
2018-04-02T11:21:58.495Z,38.23
2018-04-02T11:26:56.731Z,40.77
2018-04-02T11:29:23.586Z,45.30
2018-04-02T11:31:50.434Z,43.53
2018-04-02T11:34:16.616Z,41.33
2018-04-02T11:36:43.323Z,41.93
2018-04-02T11:39:11.013Z,36.07
2018-04-02T11:41:39.041Z,40.97
2018-04-02T11:44:05.022Z,42.00
2018-04-02T11:46:31.257Z,36.73
2018-04-02T11:48:57.991Z,36.43
2018-04-02T11:51:27.186Z,33.80
2018-04-02T11:53:55.676Z,32.33
2018-04-02T11:56:22.903Z,29.93
2018-04-02T11:58:48.897Z,30.10
2018-04-02T12:01:16.784Z,29.50
2018-04-02T12:03:50.762Z,30.93
2018-04-02T12:06:17.468Z,28.13
2018-04-02T12:08:43.595Z,29.30
2018-04-02T12:13:52.896Z,28.57
2018-04-02T12:16:18.858Z,26.97
2018-04-02T12:18:44.910Z,28.47
2018-04-02T12:21:10.942Z,24.97
2018-04-02T12:23:36.974Z,25.10
2018-04-02T12:26:12.177Z,27.10
2018-04-02T12:28:39.578Z,26.27
2018-04-02T12:31:05.557Z,26.13
2018-04-02T12:33:31.519Z,23.53
2018-04-02T12:35:57.547Z,26.10
2018-04-02T12:38:23.555Z,22.73
2018-04-02T12:40:49.566Z,22.07
2018-04-02T12:43:15.587Z,21.93
2018-04-02T12:45:41.589Z,22.53
2018-04-02T12:48:07.571Z,19.23
2018-04-02T12:50:34.376Z,19.50
2018-04-02T12:53:00.329Z,22.27
2018-04-02T12:58:29.392Z,19.90
2018-04-02T13:00:55.436Z,20.20
2018-04-02T13:03:21.424Z,18.70
2018-04-02T13:05:48.636Z,19.10
2018-04-02T13:08:15.268Z,19.87
2018-04-02T13:10:42.104Z,20.00
2018-04-02T13:13:08.026Z,20.87
2018-04-02T13:15:36.583Z,19.57
2018-04-02T13:18:03.144Z,19.60
2018-04-02T13:20:30.234Z,22.30
2018-04-02T13:22:56.202Z,20.73
2018-04-02T13:25:22.904Z,20.83
2018-04-02T13:27:48.877Z,21.27
2018-04-02T13:30:15.631Z,21.17
2018-04-02T13:32:42.651Z,21.27
2018-04-02T13:35:08.636Z,20.97
2018-04-02T13:37:34.645Z,19.53
2018-04-02T13:40:00.710Z,20.80
2018-04-02T13:42:26.687Z,22.83
2018-04-02T13:44:53.356Z,19.60
2018-04-02T13:47:19.342Z,19.27
2018-04-02T13:49:45.429Z,19.77
2018-04-02T13:52:11.413Z,22.87
2018-04-02T13:54:38.181Z,21.43
2018-04-02T13:57:04.147Z,17.97
2018-04-02T14:02:08.173Z,18.67
2018-04-02T14:04:34.889Z,19.57
2018-04-02T14:07:01.762Z,18.77
2018-04-02T14:09:27.864Z,19.07
2018-04-02T14:11:54.603Z,19.73
2018-04-02T14:14:21.389Z,18.40
2018-04-02T14:16:47.388Z,19.67
2018-04-02T14:19:13.996Z,17.97
2018-04-02T14:21:40.709Z,18.83
2018-04-02T14:24:09.051Z,18.57
2018-04-02T14:26:36.795Z,16.27
2018-04-02T14:29:06.438Z,16.07
2018-04-02T14:31:32.632Z,17.20
2018-04-02T14:33:58.653Z,17.23
2018-04-02T14:36:24.790Z,14.60
2018-04-02T14:38:50.965Z,14.47
2018-04-02T14:41:17.729Z,16.10
2018-04-02T14:43:54.714Z,13.97
2018-04-02T14:46:20.770Z,14.77
2018-04-02T14:48:46.724Z,15.37
2018-04-02T14:51:13.514Z,13.53
2018-04-02T14:53:39.523Z,12.63
2018-04-02T14:56:05.535Z,12.03
2018-04-02T14:58:31.494Z,12.30
2018-04-02T15:00:57.554Z,13.40
2018-04-02T15:03:23.880Z,12.80
2018-04-02T15:05:49.818Z,11.67
2018-04-02T15:08:15.777Z,11.67
2018-04-02T15:10:44.292Z,12.07
2018-04-02T15:13:10.273Z,10.73
2018-04-02T15:15:37.232Z,12.63
2018-04-02T15:18:04.917Z,10.87
2018-04-02T15:20:30.958Z,7.77
2018-04-02T15:23:00.322Z,8.03
2018-04-02T15:25:26.317Z,8.33
2018-04-02T15:27:58.492Z,7.00
2018-04-02T15:30:25.248Z,6.30
2018-04-02T15:32:51.276Z,9.00
2018-04-02T15:35:17.216Z,6.50
2018-04-02T15:37:43.199Z,9.93
2018-04-02T15:40:09.249Z,6.47
2018-04-02T15:42:35.244Z,7.63
2018-04-02T15:45:01.216Z,7.20
2018-04-02T15:47:27.977Z,9.10
2018-04-02T15:49:54.727Z,8.37
2018-04-02T15:52:21.433Z,7.70
2018-04-02T15:54:47.421Z,11.47
2018-04-02T15:57:13.409Z,11.20
2018-04-02T15:59:39.445Z,9.10
2018-04-02T16:02:05.422Z,8.57
2018-04-02T16:04:32.223Z,7.90
2018-04-02T16:06:58.235Z,10.33
2018-04-02T16:09:24.317Z,13.80
2018-04-02T16:11:51.049Z,10.17
2018-04-02T16:14:17.734Z,8.70
2018-04-02T16:16:44.419Z,7.40
2018-04-02T16:19:11.149Z,7.30
2018-04-02T16:21:37.927Z,8.60
2018-04-02T16:24:03.904Z,7.43
2018-04-02T16:26:30.623Z,10.73
2018-04-02T16:28:57.373Z,9.83
2018-04-02T16:31:27.751Z,9.27
2018-04-02T16:33:53.733Z,8.77
2018-04-02T16:36:19.748Z,8.20
2018-04-02T16:38:46.566Z,6.97
2018-04-02T16:41:12.544Z,7.97
2018-04-02T16:43:38.527Z,9.27
2018-04-02T16:46:05.254Z,7.97
2018-04-02T16:48:33.300Z,10.83
2018-04-02T16:50:59.291Z,7.93
2018-04-02T16:53:25.283Z,8.73
2018-04-02T16:55:51.258Z,7.07
2018-04-02T16:58:17.236Z,6.80
2018-04-02T17:00:43.964Z,8.93
2018-04-02T17:03:10.606Z,7.03
2018-04-02T17:05:36.613Z,6.77
2018-04-02T17:08:02.591Z,6.30
2018-04-02T17:14:19.447Z,7.47
2018-04-02T17:16:45.481Z,8.37
2018-04-02T17:19:11.520Z,8.03
2018-04-02T17:21:37.675Z,7.70
2018-04-02T17:24:05.582Z,8.10
2018-04-02T17:26:31.788Z,8.87
2018-04-02T17:28:58.493Z,7.43
2018-04-02T17:31:24.624Z,9.67
2018-04-02T17:33:50.719Z,7.77
2018-04-02T17:36:17.720Z,8.05
2018-04-02T17:38:44.928Z,7.47
2018-04-02T17:41:11.256Z,6.63
2018-04-02T17:43:37.261Z,6.40
2018-04-02T17:46:03.630Z,7.47
2018-04-02T17:48:30.388Z,7.87
2018-04-02T17:50:59.222Z,6.73
2018-04-02T17:53:25.581Z,6.57
2018-04-02T17:55:51.592Z,7.67
2018-04-02T17:58:18.386Z,8.87
2018-04-02T18:00:44.407Z,6.27
2018-04-02T18:03:10.378Z,8.30
2018-04-02T18:05:37.129Z,7.87
2018-04-02T18:08:03.996Z,9.73
2018-04-02T18:10:30.646Z,8.77
2018-04-02T18:12:56.651Z,7.53
2018-04-02T18:15:22.641Z,8.70
2018-04-02T18:17:48.614Z,7.63
2018-04-02T18:20:14.693Z,6.83
2018-04-02T18:22:40.710Z,10.23
2018-04-02T18:25:06.681Z,7.17
2018-04-02T18:27:32.863Z,8.00
2018-04-02T18:29:58.900Z,7.20
2018-04-02T18:32:24.900Z,6.73
2018-04-02T18:34:51.411Z,6.77
2018-04-02T18:37:17.417Z,6.90
2018-04-02T18:39:45.828Z,7.60
2018-04-02T18:42:12.169Z,8.10
2018-04-02T18:44:39.282Z,8.53
2018-04-02T18:47:08.295Z,9.30
2018-04-02T18:49:35.255Z,8.37
2018-04-02T18:52:04.627Z,6.43
2018-04-02T18:54:30.659Z,7.37
2018-04-02T18:56:56.647Z,8.27
2018-04-02T18:59:22.598Z,10.23
2018-04-02T19:01:48.640Z,5.97
2018-04-02T19:04:19.145Z,7.77
2018-04-02T19:06:45.187Z,7.13
2018-04-02T19:09:13.319Z,6.77
2018-04-02T19:11:39.919Z,6.03
2018-04-02T19:14:08.103Z,6.60
2018-04-02T19:16:34.058Z,6.43
2018-04-02T19:19:00.285Z,5.93
2018-04-02T19:21:26.284Z,6.60
2018-04-02T19:23:53.260Z,6.23
2018-04-02T19:26:20.698Z,8.93
2018-04-02T19:28:46.689Z,8.63
2018-04-02T19:31:13.327Z,10.07
2018-04-02T19:33:39.306Z,7.87
2018-04-02T19:36:05.387Z,7.43
2018-04-02T19:38:31.368Z,7.67
2018-04-02T19:40:58.554Z,7.97
2018-04-02T19:43:24.595Z,7.73
2018-04-02T19:45:50.608Z,7.33
2018-04-02T19:48:16.586Z,7.33
2018-04-02T19:50:42.640Z,6.87
2018-04-02T19:53:08.652Z,9.57
2018-04-02T19:55:36.191Z,7.33
2018-04-02T19:58:02.201Z,7.27
2018-04-02T20:00:28.492Z,7.93
2018-04-02T20:02:56.085Z,7.13
